Time;durP1;ratioP1;P1;durP2;ratioP2;P2;SDS_P1;SDS_P2;PMS_P1;PMS_P2;Temp;Humidity;BMP_temperature;BMP_pressure;BME280_temperature;BME280_humidity;BME280_pressure;Samples;Min_cycle;Max_cycle;Signal;HPM_P1;HPM_P2
2021/07/30 00:00:36;;;;;;;10.15;5.00;;;;;;;;;;5007660;28;20104;-74
2021/07/30 00:03:05;;;;;;;9.35;4.53;;;;;;;;;;5007145;28;20053;-74
2021/07/30 00:05:34;;;;;;;9.85;4.60;;;;;;;;;;5012211;28;20498;-74
2021/07/30 00:08:02;;;;;;;7.68;4.90;;;;;;;;;;5012451;28;20096;-74
2021/07/30 00:10:31;;;;;;;9.85;4.95;;;;;;;;;;5011542;28;20575;-74
2021/07/30 00:13:01;;;;;;;7.80;4.40;;;;;;;;;;5012552;28;20056;-74
2021/07/30 00:15:30;;;;;;;9.98;4.47;;;;;;;;;;5007570;28;20046;-74
2021/07/30 00:17:58;;;;;;;8.20;4.28;;;;;;;;;;5011514;28;20046;-74
2021/07/30 00:20:27;;;;;;;6.50;3.97;;;;;;;;;;5012508;28;20088;-74
2021/07/30 00:22:56;;;;;;;9.25;4.60;;;;;;;;;;5012730;28;20069;-73
2021/07/30 00:25:25;;;;;;;6.95;4.55;;;;;;;;;;5011535;28;20069;-74
2021/07/30 00:27:54;;;;;;;8.75;4.13;;;;;;;;;;5010488;28;20058;-74
2021/07/30 00:30:24;;;;;;;12.82;5.10;;;;;;;;;;5011825;28;20048;-74
2021/07/30 00:32:52;;;;;;;8.15;4.50;;;;;;;;;;5011358;28;20489;-74
2021/07/30 00:35:21;;;;;;;9.27;4.68;;;;;;;;;;5011442;28;20050;-74
2021/07/30 00:37:49;;;;;;;8.77;4.82;;;;;;;;;;5003939;28;20054;-74
2021/07/30 00:40:18;;;;;;;8.25;4.95;;;;;;;;;;5012428;28;20579;-73
2021/07/30 00:42:51;;;;;;;8.32;4.50;;;;;;;;;;5011318;28;20050;-73
2021/07/30 00:45:20;;;;;;;7.80;4.78;;;;;;;;;;5010651;28;20060;-73
2021/07/30 00:47:50;;;;;;;7.88;4.53;;;;;;;;;;5009593;28;20058;-73
2021/07/30 00:50:19;;;;;;;8.00;5.00;;;;;;;;;;5011768;28;20085;-73
2021/07/30 00:52:47;;;;;;;7.03;4.25;;;;;;;;;;5011760;28;20493;-73
2021/07/30 00:55:16;;;;;;;12.95;5.10;;;;;;;;;;5011379;28;20129;-74
2021/07/30 00:57:44;;;;;;;10.63;5.00;;;;;;;;;;5010538;28;20073;-73
2021/07/30 01:00:13;;;;;;;10.80;5.45;;;;;;;;;;5011374;28;20153;-74
2021/07/30 01:02:41;;;;;;;9.02;5.05;;;;;;;;;;5006329;28;20092;-73
2021/07/30 01:05:12;;;;;;;9.45;4.47;;;;;;;;;;5004874;28;20117;-73
2021/07/30 01:07:40;;;;;;;7.47;4.55;;;;;;;;;;5007483;28;20161;-73
2021/07/30 01:10:08;;;;;;;10.27;4.57;;;;;;;;;;4995965;28;20499;-74
2021/07/30 01:12:37;;;;;;;8.50;4.78;;;;;;;;;;5004525;28;20136;-74
2021/07/30 01:15:06;;;;;;;8.10;4.85;;;;;;;;;;5002996;28;20413;-75
2021/07/30 01:17:34;;;;;;;9.77;5.03;;;;;;;;;;5003315;28;20052;-73
2021/07/30 01:20:02;;;;;;;10.52;4.30;;;;;;;;;;4996821;28;20093;-73
2021/07/30 01:22:33;;;;;;;7.43;4.90;;;;;;;;;;4996607;28;20050;-73
2021/07/30 01:25:04;;;;;;;6.38;4.10;;;;;;;;;;5002734;28;20081;-73
2021/07/30 01:27:32;;;;;;;8.02;4.63;;;;;;;;;;4999011;28;20482;-74
2021/07/30 01:30:01;;;;;;;8.88;4.50;;;;;;;;;;5001950;28;20054;-73
2021/07/30 01:32:29;;;;;;;7.63;4.50;;;;;;;;;;5001656;28;20132;-73
2021/07/30 01:34:58;;;;;;;7.13;4.60;;;;;;;;;;5003410;28;20104;-73
2021/07/30 01:37:27;;;;;;;8.57;4.63;;;;;;;;;;5005294;28;20042;-74
2021/07/30 01:39:55;;;;;;;8.50;4.55;;;;;;;;;;5011748;28;20545;-73
2021/07/30 01:42:25;;;;;;;9.70;4.82;;;;;;;;;;5002807;28;20482;-73
2021/07/30 01:44:53;;;;;;;6.82;4.65;;;;;;;;;;5000329;28;20371;-73
2021/07/30 01:47:22;;;;;;;7.93;4.57;;;;;;;;;;5001357;28;20057;-73
2021/07/30 01:49:50;;;;;;;7.15;4.13;;;;;;;;;;4992335;28;20057;-74
2021/07/30 01:52:18;;;;;;;8.20;4.50;;;;;;;;;;5001289;28;20132;-73
2021/07/30 01:54:47;;;;;;;11.80;4.40;;;;;;;;;;5010067;28;20056;-73
2021/07/30 01:57:16;;;;;;;7.93;5.00;;;;;;;;;;4999231;28;20046;-73
2021/07/30 01:59:45;;;;;;;8.32;4.63;;;;;;;;;;5001917;28;20050;-73
2021/07/30 02:02:14;;;;;;;9.00;4.32;;;;;;;;;;5005369;28;20132;-73
2021/07/30 02:04:42;;;;;;;8.63;4.32;;;;;;;;;;4996939;28;20118;-74
2021/07/30 02:07:10;;;;;;;8.43;4.68;;;;;;;;;;5002909;28;20133;-73
2021/07/30 02:09:39;;;;;;;8.68;4.38;;;;;;;;;;5003889;28;20223;-74
2021/07/30 02:12:07;;;;;;;8.75;5.07;;;;;;;;;;5000932;28;20574;-73
2021/07/30 02:14:35;;;;;;;9.40;4.80;;;;;;;;;;5005830;28;20100;-74
2021/07/30 02:17:05;;;;;;;6.38;4.53;;;;;;;;;;5004652;28;20050;-73
2021/07/30 02:19:33;;;;;;;7.68;4.38;;;;;;;;;;4994318;28;20148;-73
2021/07/30 02:22:01;;;;;;;7.88;4.30;;;;;;;;;;5001280;28;20065;-73
2021/07/30 02:24:30;;;;;;;8.15;4.35;;;;;;;;;;5003534;28;20150;-73
2021/07/30 02:26:58;;;;;;;7.18;4.47;;;;;;;;;;5000508;28;20168;-73
2021/07/30 02:29:26;;;;;;;6.80;4.50;;;;;;;;;;4997932;28;20132;-73
2021/07/30 02:31:54;;;;;;;9.20;4.70;;;;;;;;;;4997337;28;20473;-73
2021/07/30 02:34:24;;;;;;;8.13;4.70;;;;;;;;;;4991934;28;20142;-74
2021/07/30 02:36:52;;;;;;;7.65;4.70;;;;;;;;;;5002515;28;20077;-73
2021/07/30 02:39:20;;;;;;;8.00;4.88;;;;;;;;;;5007585;28;20049;-74
2021/07/30 02:41:49;;;;;;;8.73;4.90;;;;;;;;;;5003214;28;20069;-73
2021/07/30 02:44:18;;;;;;;7.93;4.80;;;;;;;;;;4998125;28;20562;-73
2021/07/30 02:46:46;;;;;;;9.25;4.90;;;;;;;;;;4995269;28;20048;-73
2021/07/30 02:49:15;;;;;;;9.40;4.80;;;;;;;;;;5010851;28;20049;-73
2021/07/30 02:51:45;;;;;;;12.45;5.22;;;;;;;;;;5002144;28;20050;-73
2021/07/30 02:54:13;;;;;;;10.32;4.88;;;;;;;;;;5003813;28;20472;-74
2021/07/30 02:56:41;;;;;;;7.90;4.95;;;;;;;;;;5001743;28;20078;-73
2021/07/30 02:59:09;;;;;;;10.05;4.97;;;;;;;;;;4999316;28;20141;-73
2021/07/30 03:01:38;;;;;;;9.38;4.70;;;;;;;;;;5000913;28;20042;-73
2021/07/30 03:04:06;;;;;;;9.80;4.82;;;;;;;;;;5009010;28;20049;-74
2021/07/30 03:06:34;;;;;;;7.53;4.57;;;;;;;;;;5009645;28;20046;-73
2021/07/30 03:09:04;;;;;;;8.13;4.70;;;;;;;;;;5009565;28;20077;-73
2021/07/30 03:11:32;;;;;;;8.93;4.82;;;;;;;;;;5008355;28;20061;-74
2021/07/30 03:14:00;;;;;;;8.27;4.82;;;;;;;;;;5012194;28;20076;-73
2021/07/30 03:16:29;;;;;;;7.40;4.95;;;;;;;;;;5018045;28;20068;-73
2021/07/30 03:18:57;;;;;;;9.75;4.85;;;;;;;;;;5012843;28;20060;-73
2021/07/30 03:21:25;;;;;;;8.13;4.63;;;;;;;;;;5012389;28;20053;-73
2021/07/30 03:23:54;;;;;;;10.82;5.25;;;;;;;;;;5010227;28;20080;-74
2021/07/30 03:26:24;;;;;;;9.65;5.10;;;;;;;;;;5013425;28;20057;-73
2021/07/30 03:28:52;;;;;;;11.13;5.78;;;;;;;;;;5010082;28;20045;-73
2021/07/30 03:31:20;;;;;;;12.02;5.50;;;;;;;;;;5009998;28;20041;-73
2021/07/30 03:33:59;;;;;;;9.57;6.05;;;;;;;;;;2701451;28;10002374;-73
2021/07/30 03:36:27;;;;;;;10.52;5.07;;;;;;;;;;3956607;28;10001155;-73
2021/07/30 03:38:56;;;;;;;13.85;5.07;;;;;;;;;;5012595;28;20421;-73
2021/07/30 03:41:25;;;;;;;11.77;5.55;;;;;;;;;;5012046;28;20042;-73
2021/07/30 03:43:53;;;;;;;9.38;4.97;;;;;;;;;;5012217;28;20160;-74
2021/07/30 03:46:22;;;;;;;9.18;5.35;;;;;;;;;;5011563;28;20467;-73
2021/07/30 03:48:50;;;;;;;9.77;5.07;;;;;;;;;;5004592;28;20042;-73
2021/07/30 03:51:18;;;;;;;8.65;5.13;;;;;;;;;;5013380;28;20143;-73
2021/07/30 03:53:46;;;;;;;10.68;5.30;;;;;;;;;;5009733;28;20421;-73
2021/07/30 03:56:15;;;;;;;7.82;4.80;;;;;;;;;;5010786;28;20124;-73
2021/07/30 03:58:46;;;;;;;9.15;4.97;;;;;;;;;;5011831;28;20050;-73
2021/07/30 04:01:14;;;;;;;10.27;5.72;;;;;;;;;;5009743;28;20081;-73
2021/07/30 04:03:44;;;;;;;11.50;4.22;;;;;;;;;;5008498;28;20064;-73
2021/07/30 04:06:12;;;;;;;8.27;4.78;;;;;;;;;;4994436;28;20054;-73
2021/07/30 04:08:41;;;;;;;11.02;4.75;;;;;;;;;;5004589;28;20050;-73
2021/07/30 04:11:10;;;;;;;8.13;4.38;;;;;;;;;;5005993;28;20153;-73
2021/07/30 04:13:38;;;;;;;10.23;4.93;;;;;;;;;;4995553;28;20387;-73
2021/07/30 04:16:08;;;;;;;7.20;4.72;;;;;;;;;;5005230;28;20046;-73
2021/07/30 04:18:36;;;;;;;8.50;4.40;;;;;;;;;;4999867;28;20077;-74
2021/07/30 04:21:05;;;;;;;8.13;4.50;;;;;;;;;;5008887;28;20060;-74
2021/07/30 04:23:33;;;;;;;11.10;4.50;;;;;;;;;;5001440;28;20056;-73
2021/07/30 04:26:01;;;;;;;9.88;5.28;;;;;;;;;;4997632;28;20050;-73
2021/07/30 04:28:30;;;;;;;8.93;5.18;;;;;;;;;;4998070;28;20456;-73
2021/07/30 04:30:58;;;;;;;8.05;4.25;;;;;;;;;;5004136;28;20425;-75
2021/07/30 04:33:28;;;;;;;9.50;5.00;;;;;;;;;;5009901;28;20069;-73
2021/07/30 04:35:56;;;;;;;8.93;4.63;;;;;;;;;;5011500;28;20749;-73
2021/07/30 04:38:24;;;;;;;10.25;5.25;;;;;;;;;;5018862;28;20050;-73
2021/07/30 04:40:53;;;;;;;7.68;4.63;;;;;;;;;;5007057;28;20141;-73
2021/07/30 04:43:21;;;;;;;6.43;3.88;;;;;;;;;;4991847;28;20567;-73
2021/07/30 04:45:49;;;;;;;7.25;4.60;;;;;;;;;;4989735;28;20068;-73
2021/07/30 04:48:17;;;;;;;8.43;4.95;;;;;;;;;;4996953;28;20413;-73
2021/07/30 04:50:47;;;;;;;10.20;4.95;;;;;;;;;;5004104;28;20046;-74
2021/07/30 04:53:15;;;;;;;8.98;5.18;;;;;;;;;;5005159;28;20160;-73
2021/07/30 04:55:43;;;;;;;9.98;5.13;;;;;;;;;;5004583;28;20050;-73
2021/07/30 04:58:11;;;;;;;11.02;4.97;;;;;;;;;;5006983;28;20056;-73
2021/07/30 05:00:40;;;;;;;9.02;4.60;;;;;;;;;;5008130;28;20064;-73
2021/07/30 05:03:08;;;;;;;8.35;4.43;;;;;;;;;;5004671;28;20054;-73
2021/07/30 05:05:37;;;;;;;8.45;4.85;;;;;;;;;;5006920;28;20064;-73
2021/07/30 05:08:06;;;;;;;8.98;4.88;;;;;;;;;;4998671;28;20168;-74
2021/07/30 05:10:35;;;;;;;7.22;4.45;;;;;;;;;;5004372;28;20042;-74
2021/07/30 05:13:03;;;;;;;9.23;4.45;;;;;;;;;;4996837;28;20404;-73
2021/07/30 05:15:31;;;;;;;8.52;4.60;;;;;;;;;;5005728;28;20060;-73
2021/07/30 05:18:00;;;;;;;7.30;4.20;;;;;;;;;;5002362;28;20045;-73
2021/07/30 05:20:28;;;;;;;6.88;4.25;;;;;;;;;;4998743;28;20160;-75
2021/07/30 05:22:56;;;;;;;9.50;5.03;;;;;;;;;;4991713;28;20069;-75
2021/07/30 05:25:26;;;;;;;7.63;4.25;;;;;;;;;;5000451;28;20200;-73
2021/07/30 05:27:54;;;;;;;9.38;4.70;;;;;;;;;;5000391;28;20057;-73
2021/07/30 05:30:25;;;;;;;7.10;4.00;;;;;;;;;;5006434;28;20049;-73
2021/07/30 05:32:53;;;;;;;7.40;4.20;;;;;;;;;;4993751;28;20470;-73
2021/07/30 05:35:21;;;;;;;6.95;4.18;;;;;;;;;;4994458;28;20042;-73
2021/07/30 05:37:49;;;;;;;11.32;4.75;;;;;;;;;;4990672;28;20518;-74
2021/07/30 05:40:18;;;;;;;11.73;5.28;;;;;;;;;;5003016;28;20133;-73
2021/07/30 05:42:47;;;;;;;8.40;4.30;;;;;;;;;;4996448;28;20089;-73
2021/07/30 05:45:16;;;;;;;12.75;4.53;;;;;;;;;;4999379;28;20610;-73
2021/07/30 05:47:48;;;;;;;9.23;5.15;;;;;;;;;;5000216;28;20092;-73
2021/07/30 05:50:16;;;;;;;8.80;4.55;;;;;;;;;;4989983;28;20136;-73
2021/07/30 05:52:44;;;;;;;9.75;4.38;;;;;;;;;;4991184;28;20136;-75
2021/07/30 05:55:12;;;;;;;7.40;4.60;;;;;;;;;;4999907;28;20064;-72
2021/07/30 05:57:41;;;;;;;10.45;4.68;;;;;;;;;;4991881;28;20835;-73
2021/07/30 06:00:12;;;;;;;10.18;4.32;;;;;;;;;;4992475;28;20426;-73
2021/07/30 06:02:40;;;;;;;8.30;4.45;;;;;;;;;;4994765;28;20078;-73
2021/07/30 06:05:09;;;;;;;7.28;4.55;;;;;;;;;;4999625;28;20046;-73
2021/07/30 06:07:38;;;;;;;9.05;4.57;;;;;;;;;;4999446;28;20119;-74
2021/07/30 06:10:07;;;;;;;8.55;4.78;;;;;;;;;;4992455;28;20052;-73
2021/07/30 06:12:36;;;;;;;9.25;4.88;;;;;;;;;;4999282;28;20057;-76
2021/07/30 06:15:04;;;;;;;8.88;4.35;;;;;;;;;;4994778;28;20073;-74
2021/07/30 06:17:34;;;;;;;9.60;4.85;;;;;;;;;;5001550;28;20054;-74
2021/07/30 06:20:03;;;;;;;7.65;4.63;;;;;;;;;;4996628;28;20096;-75
2021/07/30 06:22:34;;;;;;;10.45;4.82;;;;;;;;;;4989540;28;20108;-73
2021/07/30 06:25:03;;;;;;;10.15;4.38;;;;;;;;;;4995002;28;20119;-73
2021/07/30 06:27:34;;;;;;;9.65;4.68;;;;;;;;;;4989807;28;20045;-74
2021/07/30 06:30:02;;;;;;;8.55;4.80;;;;;;;;;;4998250;28;20478;-75
2021/07/30 06:32:31;;;;;;;6.88;4.03;;;;;;;;;;4996895;28;20141;-73
2021/07/30 06:35:01;;;;;;;7.53;4.47;;;;;;;;;;4990199;28;20057;-74
2021/07/30 06:37:33;;;;;;;8.05;5.13;;;;;;;;;;4997416;28;20077;-74
2021/07/30 06:40:02;;;;;;;10.40;5.22;;;;;;;;;;4996130;28;20053;-74
2021/07/30 06:42:30;;;;;;;12.38;5.15;;;;;;;;;;5004706;28;20348;-75
2021/07/30 06:44:59;;;;;;;12.45;5.13;;;;;;;;;;5005759;28;20041;-74
2021/07/30 06:47:31;;;;;;;9.68;5.13;;;;;;;;;;4994605;28;20458;-73
2021/07/30 06:49:59;;;;;;;10.57;5.22;;;;;;;;;;5008338;28;20074;-74
2021/07/30 06:52:30;;;;;;;13.70;5.00;;;;;;;;;;5006313;28;20135;-74
2021/07/30 06:55:00;;;;;;;10.88;5.22;;;;;;;;;;4993595;28;20458;-73
2021/07/30 06:57:28;;;;;;;10.25;5.60;;;;;;;;;;5003637;28;20080;-74
2021/07/30 06:59:57;;;;;;;10.00;4.57;;;;;;;;;;5006370;28;20100;-74
2021/07/30 07:02:26;;;;;;;12.43;5.20;;;;;;;;;;5000632;28;20601;-74
2021/07/30 07:04:54;;;;;;;10.50;5.22;;;;;;;;;;5007155;28;20060;-74
2021/07/30 07:07:24;;;;;;;11.63;5.03;;;;;;;;;;4997909;28;20506;-73
2021/07/30 07:09:54;;;;;;;11.98;5.00;;;;;;;;;;5001980;28;20423;-73
2021/07/30 07:12:22;;;;;;;9.45;4.82;;;;;;;;;;5001059;28;20148;-73
2021/07/30 07:14:51;;;;;;;10.50;5.47;;;;;;;;;;4994508;28;20050;-73
2021/07/30 07:17:20;;;;;;;9.32;5.10;;;;;;;;;;5008739;28;20089;-73
2021/07/30 07:19:48;;;;;;;12.23;5.13;;;;;;;;;;5003841;28;20054;-75
2021/07/30 07:22:17;;;;;;;11.10;5.18;;;;;;;;;;5004426;28;20507;-73
2021/07/30 07:24:45;;;;;;;9.65;5.20;;;;;;;;;;4991768;28;20050;-74
2021/07/30 07:27:15;;;;;;;14.00;5.30;;;;;;;;;;5003096;28;20096;-74
2021/07/30 07:29:43;;;;;;;9.80;5.03;;;;;;;;;;5001999;28;20050;-74
2021/07/30 07:32:11;;;;;;;9.65;5.35;;;;;;;;;;4995379;28;20085;-73
2021/07/30 07:34:40;;;;;;;8.57;4.30;;;;;;;;;;5000132;28;20134;-74
2021/07/30 07:37:08;;;;;;;8.30;5.00;;;;;;;;;;4997081;28;20097;-75
2021/07/30 07:39:37;;;;;;;6.82;4.75;;;;;;;;;;5003577;28;20124;-74
2021/07/30 07:42:05;;;;;;;7.50;4.53;;;;;;;;;;4996073;28;20050;-73
2021/07/30 07:44:35;;;;;;;6.35;4.22;;;;;;;;;;4991169;28;20611;-74
2021/07/30 07:47:04;;;;;;;11.00;5.20;;;;;;;;;;5005230;28;20085;-74
2021/07/30 07:49:32;;;;;;;8.18;4.60;;;;;;;;;;4997811;28;20046;-74
2021/07/30 07:52:01;;;;;;;7.93;4.55;;;;;;;;;;4994444;28;20449;-74
2021/07/30 07:54:49;;;;;;;12.68;5.03;;;;;;;;;;4994913;28;20050;-73
2021/07/30 07:57:17;;;;;;;9.32;4.50;;;;;;;;;;4998954;28;20050;-73
2021/07/30 07:59:47;;;;;;;11.38;4.47;;;;;;;;;;5008534;28;20085;-73
2021/07/30 08:02:15;;;;;;;8.50;4.32;;;;;;;;;;5006012;28;20050;-74
2021/07/30 08:04:44;;;;;;;8.07;4.40;;;;;;;;;;4999072;28;20054;-74
2021/07/30 08:07:17;;;;;;;8.23;4.43;;;;;;;;;;5017574;28;20061;-74
2021/07/30 08:09:46;;;;;;;8.40;4.38;;;;;;;;;;5008184;28;20069;-74
2021/07/30 08:12:14;;;;;;;8.35;5.05;;;;;;;;;;5003500;28;20050;-74
2021/07/30 08:14:43;;;;;;;7.78;5.07;;;;;;;;;;5007389;28;20085;-75
2021/07/30 08:17:14;;;;;;;13.35;4.95;;;;;;;;;;5004576;28;20052;-74
2021/07/30 08:19:47;;;;;;;7.75;4.68;;;;;;;;;;5007522;28;20133;-74
2021/07/30 08:22:16;;;;;;;12.73;4.80;;;;;;;;;;4998329;28;20401;-75
2021/07/30 08:24:45;;;;;;;9.55;4.28;;;;;;;;;;5006260;28;20052;-75
2021/07/30 08:27:14;;;;;;;8.65;5.22;;;;;;;;;;5002579;28;20073;-74
2021/07/30 08:29:43;;;;;;;8.20;4.85;;;;;;;;;;5007568;28;20058;-74
2021/07/30 08:32:13;;;;;;;7.22;4.20;;;;;;;;;;5006782;28;20058;-73
2021/07/30 08:34:41;;;;;;;7.57;4.25;;;;;;;;;;5007165;28;20049;-74
2021/07/30 08:37:10;;;;;;;7.65;4.75;;;;;;;;;;5006856;28;20053;-74
2021/07/30 08:39:39;;;;;;;8.23;4.32;;;;;;;;;;5013716;28;20073;-75
2021/07/30 08:42:07;;;;;;;8.68;4.43;;;;;;;;;;5006417;28;20070;-75
2021/07/30 08:44:35;;;;;;;7.75;4.35;;;;;;;;;;5001831;28;20074;-75
2021/07/30 08:47:04;;;;;;;8.40;4.63;;;;;;;;;;5005734;28;20056;-74
2021/07/30 08:49:35;;;;;;;8.25;4.65;;;;;;;;;;5008803;28;20050;-75
2021/07/30 08:52:07;;;;;;;6.90;3.97;;;;;;;;;;5004925;28;20524;-75
2021/07/30 08:54:36;;;;;;;6.50;4.00;;;;;;;;;;5006358;28;20533;-75
2021/07/30 08:57:07;;;;;;;6.75;4.50;;;;;;;;;;4992182;28;20464;-75
2021/07/30 08:59:38;;;;;;;6.75;4.30;;;;;;;;;;5005567;28;20088;-75
2021/07/30 09:02:07;;;;;;;8.98;5.18;;;;;;;;;;5001479;28;20480;-76
2021/07/30 09:04:38;;;;;;;7.45;4.35;;;;;;;;;;4977186;28;20061;-75
2021/07/30 09:07:07;;;;;;;7.35;4.50;;;;;;;;;;4974454;28;20372;-74
2021/07/30 09:09:36;;;;;;;6.65;4.22;;;;;;;;;;4977103;28;20073;-73
2021/07/30 09:12:05;;;;;;;6.00;3.67;;;;;;;;;;4971294;28;20140;-74
2021/07/30 09:14:37;;;;;;;5.80;4.03;;;;;;;;;;4987280;28;20104;-73
2021/07/30 09:17:06;;;;;;;7.72;4.30;;;;;;;;;;4989528;28;20045;-73
2021/07/30 09:19:36;;;;;;;5.85;3.88;;;;;;;;;;5001192;28;20043;-74
2021/07/30 09:22:07;;;;;;;5.68;3.67;;;;;;;;;;4973654;28;20515;-74
2021/07/30 09:24:36;;;;;;;7.30;4.65;;;;;;;;;;4985156;28;20448;-75
2021/07/30 09:27:05;;;;;;;9.18;4.78;;;;;;;;;;4987842;28;20100;-74
2021/07/30 09:29:34;;;;;;;7.25;4.53;;;;;;;;;;4987429;28;20550;-74
2021/07/30 09:32:03;;;;;;;6.07;4.30;;;;;;;;;;4987789;28;20072;-74
2021/07/30 09:34:34;;;;;;;8.35;5.10;;;;;;;;;;4985695;28;20042;-73
2021/07/30 09:37:03;;;;;;;7.60;4.63;;;;;;;;;;4980964;28;20053;-74
2021/07/30 09:39:40;;;;;;;7.65;4.57;;;;;;;;;;4987276;28;20054;-74
2021/07/30 09:42:09;;;;;;;7.07;4.93;;;;;;;;;;4988325;28;20113;-73
2021/07/30 09:44:47;;;;;;;6.80;4.53;;;;;;;;;;4987824;28;20065;-74
2021/07/30 09:47:17;;;;;;;7.93;5.15;;;;;;;;;;4976130;28;20273;-76
2021/07/30 09:49:47;;;;;;;6.78;4.32;;;;;;;;;;4987091;28;20054;-75
2021/07/30 09:52:17;;;;;;;7.47;4.50;;;;;;;;;;4987508;28;20086;-74
2021/07/30 09:54:48;;;;;;;6.97;4.72;;;;;;;;;;4987507;28;20065;-74
2021/07/30 09:57:18;;;;;;;7.20;4.60;;;;;;;;;;4987319;28;20042;-75
2021/07/30 09:59:47;;;;;;;7.13;4.60;;;;;;;;;;4989689;28;20042;-74
2021/07/30 10:02:17;;;;;;;7.50;4.47;;;;;;;;;;4982391;28;20493;-74
2021/07/30 10:04:47;;;;;;;6.65;4.38;;;;;;;;;;5008551;28;20061;-74
2021/07/30 10:07:17;;;;;;;7.25;4.63;;;;;;;;;;4994766;28;20042;-74
2021/07/30 10:09:48;;;;;;;6.45;4.15;;;;;;;;;;5009616;28;20089;-74
2021/07/30 10:12:18;;;;;;;10.15;4.75;;;;;;;;;;5008136;28;20120;-73
2021/07/30 10:14:47;;;;;;;9.52;4.40;;;;;;;;;;5008486;28;20399;-73
2021/07/30 10:17:16;;;;;;;6.50;4.55;;;;;;;;;;5006880;28;20331;-73
2021/07/30 10:19:47;;;;;;;10.30;4.15;;;;;;;;;;5010031;28;20064;-74
2021/07/30 10:22:16;;;;;;;5.80;4.60;;;;;;;;;;5007579;28;20589;-73
2021/07/30 10:24:50;;;;;;;6.10;4.18;;;;;;;;;;5002409;28;20062;-75
2021/07/30 10:27:20;;;;;;;5.95;4.20;;;;;;;;;;5001262;28;20451;-74
2021/07/30 10:30:06;;;;;;;8.38;4.30;;;;;;;;;;5002171;28;20077;-76
2021/07/30 10:32:53;;;;;;;6.45;4.10;;;;;;;;;;5001095;28;20092;-74
2021/07/30 10:35:36;;;;;;;6.00;4.15;;;;;;;;;;5002597;28;20723;-74
2021/07/30 10:38:12;;;;;;;7.28;3.97;;;;;;;;;;5004828;28;20081;-74
2021/07/30 10:40:41;;;;;;;6.78;4.40;;;;;;;;;;5004769;28;20092;-74
2021/07/30 10:43:11;;;;;;;6.32;4.22;;;;;;;;;;5004470;28;20089;-74
2021/07/30 10:45:41;;;;;;;6.63;4.28;;;;;;;;;;5001366;28;20050;-73
2021/07/30 10:48:37;;;;;;;7.82;4.03;;;;;;;;;;5001978;28;20489;-74
2021/07/30 10:51:20;;;;;;;5.47;4.03;;;;;;;;;;5004342;28;20066;-75
2021/07/30 10:53:50;;;;;;;6.63;4.32;;;;;;;;;;5005028;28;20607;-74
2021/07/30 10:56:48;;;;;;;5.47;4.13;;;;;;;;;;5004616;28;20049;-74
2021/07/30 10:59:20;;;;;;;8.85;4.22;;;;;;;;;;5008291;28;20145;-75
2021/07/30 11:02:01;;;;;;;7.03;4.70;;;;;;;;;;4996443;28;20472;-74
2021/07/30 11:04:31;;;;;;;7.70;4.15;;;;;;;;;;4985792;28;20101;-74
2021/07/30 11:07:00;;;;;;;6.22;4.45;;;;;;;;;;4985487;28;20043;-76
2021/07/30 11:09:37;;;;;;;5.40;4.10;;;;;;;;;;4996566;28;20133;-74
2021/07/30 11:12:07;;;;;;;5.85;3.97;;;;;;;;;;4986412;28;20082;-74
2021/07/30 11:14:37;;;;;;;8.43;4.03;;;;;;;;;;4984839;28;20458;-74
2021/07/30 11:17:07;;;;;;;7.40;4.55;;;;;;;;;;4987830;28;20376;-75
2021/07/30 11:19:36;;;;;;;5.03;4.03;;;;;;;;;;4986780;28;20487;-74
2021/07/30 11:22:06;;;;;;;7.03;4.53;;;;;;;;;;4985893;28;20085;-75
2021/07/30 11:24:37;;;;;;;5.38;4.22;;;;;;;;;;4986427;28;20043;-74
2021/07/30 11:27:07;;;;;;;6.03;4.03;;;;;;;;;;4985813;28;20050;-74
2021/07/30 11:29:37;;;;;;;7.05;3.80;;;;;;;;;;4984528;28;20491;-74
2021/07/30 11:32:06;;;;;;;5.75;4.00;;;;;;;;;;4968036;28;20089;-74
2021/07/30 11:34:35;;;;;;;5.00;3.80;;;;;;;;;;4983844;28;20057;-75
2021/07/30 11:37:04;;;;;;;5.13;3.83;;;;;;;;;;4989135;28;20145;-74
2021/07/30 11:39:34;;;;;;;5.30;3.90;;;;;;;;;;4984391;28;20050;-73
2021/07/30 11:42:03;;;;;;;5.93;3.90;;;;;;;;;;4989548;28;20429;-74
2021/07/30 11:44:42;;;;;;;5.25;3.70;;;;;;;;;;4989110;28;20698;-74
2021/07/30 11:47:11;;;;;;;7.20;4.20;;;;;;;;;;4989984;28;20058;-73
2021/07/30 11:49:41;;;;;;;5.40;3.70;;;;;;;;;;4989091;28;20061;-73
2021/07/30 11:52:12;;;;;;;5.72;3.83;;;;;;;;;;4989247;28;20050;-74
2021/07/30 11:54:41;;;;;;;5.47;3.80;;;;;;;;;;4977218;28;20073;-73
2021/07/30 11:57:09;;;;;;;5.25;3.88;;;;;;;;;;4989673;28;20056;-73
2021/07/30 11:59:44;;;;;;;5.35;3.42;;;;;;;;;;4981107;28;20058;-74
2021/07/30 12:02:16;;;;;;;6.53;4.20;;;;;;;;;;4986138;28;20062;-74
2021/07/30 12:04:51;;;;;;;8.23;3.65;;;;;;;;;;4981772;28;20572;-74
2021/07/30 12:07:22;;;;;;;5.60;3.72;;;;;;;;;;4984392;28;20506;-74
2021/07/30 12:09:53;;;;;;;6.22;3.95;;;;;;;;;;4962111;28;20290;-74
2021/07/30 12:12:23;;;;;;;5.10;3.40;;;;;;;;;;4974533;28;20054;-74
2021/07/30 12:14:54;;;;;;;4.53;3.40;;;;;;;;;;4984960;28;20117;-75
2021/07/30 12:17:24;;;;;;;6.75;3.95;;;;;;;;;;4980453;28;20434;-76
2021/07/30 12:20:00;;;;;;;6.05;3.85;;;;;;;;;;4969179;28;20062;-75
2021/07/30 12:22:35;;;;;;;5.47;3.75;;;;;;;;;;4971175;28;20564;-75
2021/07/30 12:25:05;;;;;;;6.95;3.88;;;;;;;;;;4994083;28;20225;-75
2021/07/30 12:27:33;;;;;;;4.32;3.45;;;;;;;;;;4991783;28;20494;-74
2021/07/30 12:30:04;;;;;;;4.88;3.53;;;;;;;;;;4984388;28;20502;-76
2021/07/30 12:32:40;;;;;;;5.78;3.60;;;;;;;;;;4980838;28;20050;-75
2021/07/30 12:35:11;;;;;;;5.20;3.47;;;;;;;;;;4976712;28;20554;-74
2021/07/30 12:37:41;;;;;;;4.72;3.92;;;;;;;;;;4979030;28;20494;-74
2021/07/30 12:40:20;;;;;;;4.85;3.83;;;;;;;;;;4977505;28;20054;-73
2021/07/30 12:42:49;;;;;;;4.82;3.70;;;;;;;;;;4970389;28;20495;-74
2021/07/30 12:45:17;;;;;;;5.13;3.90;;;;;;;;;;4977308;28;20077;-73
2021/07/30 12:48:07;;;;;;;5.03;3.95;;;;;;;;;;4992332;28;20056;-74
2021/07/30 12:50:38;;;;;;;5.68;3.75;;;;;;;;;;4973251;28;20051;-77
2021/07/30 12:53:08;;;;;;;6.47;4.15;;;;;;;;;;4968324;28;20264;-74
2021/07/30 12:55:55;;;;;;;6.13;4.03;;;;;;;;;;4973404;28;20090;-74
2021/07/30 12:58:24;;;;;;;5.72;4.22;;;;;;;;;;4973838;28;20081;-75
2021/07/30 13:00:52;;;;;;;6.15;4.22;;;;;;;;;;4986741;28;20069;-75
2021/07/30 13:03:21;;;;;;;7.05;4.47;;;;;;;;;;4997698;28;20141;-75
2021/07/30 13:05:54;;;;;;;4.13;3.58;;;;;;;;;;4994090;28;20093;-74
2021/07/30 13:08:24;;;;;;;5.10;3.88;;;;;;;;;;4991434;28;20150;-74
2021/07/30 13:10:53;;;;;;;5.28;3.70;;;;;;;;;;4989912;28;20061;-74
2021/07/30 13:13:26;;;;;;;6.38;3.65;;;;;;;;;;5006663;28;20065;-74
2021/07/30 13:15:55;;;;;;;4.93;3.58;;;;;;;;;;5008040;28;20057;-75
2021/07/30 13:18:23;;;;;;;5.55;3.72;;;;;;;;;;5007051;28;20111;-74
2021/07/30 13:20:55;;;;;;;6.75;3.85;;;;;;;;;;5006658;28;20081;-75
2021/07/30 13:23:23;;;;;;;4.70;3.83;;;;;;;;;;5005414;28;20086;-76
2021/07/30 13:25:52;;;;;;;7.60;4.25;;;;;;;;;;5003532;28;20045;-75
2021/07/30 13:28:21;;;;;;;6.90;3.85;;;;;;;;;;5001365;28;20045;-75
2021/07/30 13:30:52;;;;;;;7.18;4.40;;;;;;;;;;5010949;28;20054;-74
2021/07/30 13:33:20;;;;;;;5.30;3.90;;;;;;;;;;5009699;28;20049;-76
2021/07/30 13:35:49;;;;;;;4.95;4.00;;;;;;;;;;5008197;28;20077;-75
2021/07/30 13:38:18;;;;;;;5.53;3.83;;;;;;;;;;5013315;28;20656;-76
2021/07/30 13:40:48;;;;;;;5.95;4.13;;;;;;;;;;5000431;28;20081;-75
2021/07/30 13:43:16;;;;;;;5.50;3.75;;;;;;;;;;5010678;28;20096;-74
2021/07/30 13:45:45;;;;;;;5.35;3.58;;;;;;;;;;5007843;28;20081;-76
2021/07/30 13:48:13;;;;;;;6.07;4.07;;;;;;;;;;5004940;28;20045;-75
2021/07/30 13:50:42;;;;;;;5.20;3.72;;;;;;;;;;5006773;28;20105;-74
2021/07/30 13:53:10;;;;;;;5.97;3.97;;;;;;;;;;5005440;28;20076;-74
2021/07/30 13:55:41;;;;;;;5.25;3.58;;;;;;;;;;5003291;28;20050;-75
2021/07/30 13:58:09;;;;;;;5.20;3.83;;;;;;;;;;5005395;28;20053;-74
2021/07/30 14:00:38;;;;;;;5.55;3.47;;;;;;;;;;5005912;28;20049;-76
2021/07/30 14:03:06;;;;;;;5.35;3.70;;;;;;;;;;5001785;28;20570;-74
2021/07/30 14:05:35;;;;;;;5.97;3.67;;;;;;;;;;4997344;28;20054;-74
2021/07/30 14:08:03;;;;;;;7.50;3.80;;;;;;;;;;5003487;28;20050;-76
2021/07/30 14:10:32;;;;;;;6.22;4.03;;;;;;;;;;5005807;28;20116;-75
2021/07/30 14:13:01;;;;;;;4.70;3.80;;;;;;;;;;5007664;28;20104;-74
2021/07/30 14:15:31;;;;;;;4.95;3.92;;;;;;;;;;5005740;28;20453;-74
2021/07/30 14:17:59;;;;;;;6.60;4.10;;;;;;;;;;5013698;28;20080;-75
2021/07/30 14:20:28;;;;;;;6.22;3.83;;;;;;;;;;5009834;28;20147;-74
2021/07/30 14:22:56;;;;;;;4.22;3.22;;;;;;;;;;4998851;28;20148;-74
2021/07/30 14:25:24;;;;;;;5.70;3.92;;;;;;;;;;4996100;28;20073;-74
2021/07/30 14:27:53;;;;;;;5.30;3.75;;;;;;;;;;5003624;28;20169;-74
2021/07/30 14:30:23;;;;;;;7.32;3.83;;;;;;;;;;5005179;28;20088;-74
2021/07/30 14:32:51;;;;;;;5.93;4.32;;;;;;;;;;5005096;28;20087;-75
2021/07/30 14:35:20;;;;;;;6.13;3.72;;;;;;;;;;5005329;28;20473;-75
2021/07/30 14:37:48;;;;;;;5.90;3.97;;;;;;;;;;5009760;28;20133;-75
2021/07/30 14:40:17;;;;;;;5.90;4.15;;;;;;;;;;4996220;28;20145;-74
2021/07/30 14:42:45;;;;;;;6.07;3.97;;;;;;;;;;4987476;28;20046;-74
2021/07/30 14:45:13;;;;;;;5.78;4.07;;;;;;;;;;4999847;28;20090;-75
2021/07/30 14:47:43;;;;;;;4.97;3.70;;;;;;;;;;5005283;28;20544;-74
2021/07/30 14:50:11;;;;;;;4.82;3.72;;;;;;;;;;5000814;28;20181;-74
2021/07/30 14:52:40;;;;;;;5.65;3.67;;;;;;;;;;5003014;28;20544;-74
2021/07/30 14:55:09;;;;;;;5.20;4.20;;;;;;;;;;4998015;28;20057;-75